createdAt,value
2022-08-04T00:02:51.809Z,10.60
2022-08-04T00:08:03.166Z,10.85
2022-08-04T00:13:08.504Z,15.75
2022-08-04T00:18:16.603Z,11.75
2022-08-04T00:23:19.436Z,12.70
2022-08-04T00:28:22.186Z,12.98
2022-08-04T00:33:26.278Z,12.85
2022-08-04T00:38:31.593Z,15.32
2022-08-04T00:43:44.114Z,12.40
2022-08-04T00:48:58.678Z,12.02
2022-08-04T00:54:35.334Z,11.77
2022-08-04T01:00:02.153Z,11.88
2022-08-04T01:05:09.209Z,12.95
2022-08-04T01:10:31.973Z,12.27
2022-08-04T01:16:00.232Z,13.77
2022-08-04T01:21:15.859Z,12.88
2022-08-04T01:26:57.915Z,14.25
2022-08-04T01:32:31.596Z,12.63
2022-08-04T01:37:49.854Z,14.45
2022-08-04T01:42:53.938Z,12.88
2022-08-04T01:48:03.049Z,13.35
2022-08-04T01:53:05.647Z,15.45
2022-08-04T01:58:08.841Z,14.20
2022-08-04T02:03:14.290Z,13.77
2022-08-04T02:08:50.105Z,12.60
2022-08-04T02:14:40.714Z,16.33
2022-08-04T02:19:55.924Z,16.07
2022-08-04T02:25:04.943Z,13.88
2022-08-04T02:30:07.778Z,12.37
2022-08-04T02:35:19.476Z,13.60
2022-08-04T02:40:24.803Z,14.38
2022-08-04T02:45:29.192Z,15.07
2022-08-04T02:50:35.815Z,13.70
2022-08-04T02:55:39.575Z,22.75
2022-08-04T03:00:59.327Z,14.43
2022-08-04T03:06:13.851Z,13.18
2022-08-04T03:11:53.994Z,13.15
2022-08-04T03:17:24.191Z,18.20
2022-08-04T03:22:32.698Z,12.95
2022-08-04T03:27:56.642Z,15.00
2022-08-04T03:33:17.094Z,16.27
2022-08-04T03:38:37.651Z,13.73
2022-08-04T03:44:09.802Z,15.23
2022-08-04T03:49:43.359Z,14.87
2022-08-04T03:55:00.927Z,21.07
2022-08-04T04:00:20.316Z,21.27
2022-08-04T04:05:58.911Z,20.97
2022-08-04T04:11:35.177Z,16.50
2022-08-04T04:17:09.991Z,16.70
2022-08-04T04:22:54.618Z,17.77
2022-08-04T04:28:44.342Z,16.60
2022-08-04T04:33:52.861Z,17.27
2022-08-04T04:39:06.467Z,16.33
2022-08-04T04:44:14.770Z,17.90
2022-08-04T04:49:40.905Z,19.27
2022-08-04T04:55:02.700Z,16.58
2022-08-04T05:00:11.130Z,20.92
2022-08-04T05:05:19.574Z,14.48
2022-08-04T05:10:37.094Z,23.98
2022-08-04T05:15:45.179Z,20.58
2022-08-04T05:20:54.637Z,20.77
2022-08-04T05:26:04.517Z,20.10
2022-08-04T05:31:17.098Z,14.60
2022-08-04T05:36:39.922Z,16.02
2022-08-04T05:41:48.047Z,19.08
2022-08-04T05:46:59.309Z,16.15
2022-08-04T05:52:04.137Z,18.13
2022-08-04T05:57:07.956Z,15.10
2022-08-04T06:02:11.124Z,12.15
2022-08-04T06:07:16.894Z,13.00
2022-08-04T06:12:40.410Z,11.85
2022-08-04T06:19:57.203Z,10.95
2022-08-04T06:23:15.450Z,11.98
2022-08-04T06:28:19.014Z,12.13
2022-08-04T06:33:54.826Z,9.98
2022-08-04T06:39:00.075Z,13.82
2022-08-04T06:44:09.298Z,10.13
2022-08-04T06:49:13.673Z,10.68
2022-08-04T06:54:16.306Z,9.75
2022-08-04T06:59:20.527Z,13.55
2022-08-04T07:04:23.274Z,9.40
2022-08-04T07:09:26.039Z,10.73
2022-08-04T07:14:29.429Z,7.75
2022-08-04T07:19:38.418Z,10.52
2022-08-04T07:24:42.542Z,10.85
2022-08-04T07:29:45.859Z,7.05
2022-08-04T07:34:52.675Z,7.80
2022-08-04T07:39:55.267Z,6.82
2022-08-04T07:44:58.929Z,6.28
2022-08-04T07:50:01.861Z,7.53
2022-08-04T07:55:05.344Z,11.07
2022-08-04T08:00:09.038Z,7.78
2022-08-04T08:05:19.651Z,6.38
2022-08-04T08:10:23.422Z,9.65
2022-08-04T08:15:26.601Z,7.25
2022-08-04T08:20:31.233Z,6.93
2022-08-04T08:25:34.312Z,6.65
2022-08-04T08:30:36.870Z,7.25
2022-08-04T08:35:54.049Z,6.43
2022-08-04T08:41:17.280Z,10.45
2022-08-04T08:46:49.317Z,8.90
2022-08-04T08:53:00.810Z,9.75
2022-08-04T08:58:13.526Z,6.47
2022-08-04T09:03:46.275Z,7.53
2022-08-04T09:09:12.816Z,6.13
2022-08-04T09:14:25.472Z,9.05
2022-08-04T09:19:45.899Z,7.10
2022-08-04T09:24:53.513Z,62.10
2022-08-04T09:30:04.674Z,6.97
2022-08-04T09:35:33.550Z,9.95
2022-08-04T09:41:48.129Z,7.95
2022-08-04T09:47:25.703Z,6.05
2022-08-04T09:52:48.157Z,8.45
2022-08-04T09:58:02.451Z,6.82
2022-08-04T10:03:05.192Z,8.32
2022-08-04T10:08:27.387Z,6.57
2022-08-04T10:13:39.879Z,7.72
2022-08-04T10:18:58.838Z,7.82
2022-08-04T10:24:33.367Z,6.03
2022-08-04T10:29:45.430Z,6.82
2022-08-04T10:35:08.695Z,7.18
2022-08-04T10:40:46.860Z,6.18
2022-08-04T10:46:03.903Z,8.50
2022-08-04T10:51:21.293Z,5.63
2022-08-04T10:56:41.894Z,8.20
2022-08-04T11:02:01.649Z,10.88
2022-08-04T11:07:05.469Z,7.32
2022-08-04T11:12:15.778Z,6.93
2022-08-04T11:17:33.721Z,6.18
2022-08-04T11:22:44.571Z,10.75
2022-08-04T11:28:09.462Z,7.93
2022-08-04T11:33:24.172Z,5.15
2022-08-04T11:39:11.476Z,8.98
2022-08-04T11:44:24.024Z,7.10
2022-08-04T11:49:56.570Z,20.70
2022-08-04T11:54:58.661Z,10.35
2022-08-04T12:00:07.520Z,5.63
2022-08-04T12:05:32.396Z,6.43
2022-08-04T12:10:43.134Z,7.38
2022-08-04T12:16:13.651Z,11.40
2022-08-04T12:21:39.183Z,6.88
2022-08-04T12:26:54.346Z,5.47
2022-08-04T12:32:33.130Z,6.57
2022-08-04T12:38:05.083Z,8.05
2022-08-04T12:43:22.680Z,6.38
2022-08-04T12:48:26.688Z,10.05
2022-08-04T12:53:51.251Z,10.32
2022-08-04T12:59:01.062Z,11.00
2022-08-04T13:04:19.576Z,6.30
2022-08-04T13:09:26.482Z,7.15
2022-08-04T13:14:35.153Z,6.60
2022-08-04T13:19:41.347Z,8.00
2022-08-04T13:24:56.688Z,5.72
2022-08-04T13:30:08.042Z,8.38
2022-08-04T13:35:13.331Z,6.75
2022-08-04T13:40:16.524Z,33.53
2022-08-04T13:45:24.566Z,9.00
2022-08-04T13:50:38.697Z,6.13
2022-08-04T13:55:41.370Z,6.25
2022-08-04T14:00:53.736Z,7.10
2022-08-04T14:06:31.825Z,4.95
2022-08-04T14:12:09.203Z,9.30
2022-08-04T14:17:20.661Z,7.03
2022-08-04T14:22:26.284Z,29.33
2022-08-04T14:28:15.060Z,7.90
2022-08-04T14:34:01.575Z,6.80
2022-08-04T14:39:00.467Z,8.23
2022-08-04T14:44:04.093Z,6.07
2022-08-04T14:49:12.136Z,6.07
2022-08-04T14:54:18.593Z,9.00
2022-08-04T14:59:22.198Z,10.10
2022-08-04T15:04:25.934Z,7.65
2022-08-04T15:09:28.794Z,14.50
2022-08-04T15:14:36.894Z,5.68
2022-08-04T15:19:40.514Z,6.63
2022-08-04T15:24:58.579Z,6.75
2022-08-04T15:30:04.904Z,8.63
2022-08-04T15:35:13.510Z,17.27
2022-08-04T15:40:33.467Z,7.15
2022-08-04T15:46:37.291Z,7.80
2022-08-04T15:51:33.000Z,5.35
2022-08-04T15:56:35.654Z,7.38
2022-08-04T16:01:38.205Z,8.38
2022-08-04T16:06:41.510Z,9.35
2022-08-04T16:11:44.018Z,5.82
2022-08-04T16:16:51.689Z,8.80
2022-08-04T16:21:56.208Z,10.45
2022-08-04T16:27:00.904Z,7.80
2022-08-04T16:32:35.842Z,21.20
2022-08-04T16:37:43.037Z,6.50
2022-08-04T16:42:46.091Z,27.05
2022-08-04T16:47:48.466Z,7.72
2022-08-04T16:52:53.799Z,9.73
2022-08-04T16:57:59.194Z,7.20
2022-08-04T17:03:06.595Z,7.90
2022-08-04T17:14:04.011Z,9.57
2022-08-04T17:18:58.101Z,7.97
2022-08-04T17:24:15.707Z,12.75
2022-08-04T17:29:20.256Z,17.95
2022-08-04T17:34:26.351Z,46.05
2022-08-04T17:39:55.039Z,59.30
2022-08-04T17:50:53.308Z,21.15
2022-08-04T17:55:57.023Z,20.13
2022-08-04T18:01:23.774Z,21.85
2022-08-04T18:06:26.518Z,14.85
2022-08-04T18:11:41.986Z,13.43
2022-08-04T18:16:45.449Z,17.73
2022-08-04T18:21:59.710Z,21.90
2022-08-04T18:27:06.499Z,19.77
2022-08-04T18:32:10.135Z,13.95
2022-08-04T18:38:03.140Z,12.38
2022-08-04T18:42:37.466Z,19.45
2022-08-04T18:47:58.698Z,20.50
2022-08-04T18:53:01.794Z,12.07
2022-08-04T18:58:11.867Z,9.63
2022-08-04T19:03:22.921Z,8.07
2022-08-04T19:08:33.207Z,8.10
2022-08-04T19:13:37.777Z,14.25
2022-08-04T19:18:40.277Z,11.25
2022-08-04T19:24:28.871Z,17.08
2022-08-04T19:29:05.809Z,22.77
2022-08-04T19:34:11.487Z,17.40
2022-08-04T19:39:14.318Z,20.00
2022-08-04T19:44:19.095Z,20.60
2022-08-04T19:54:49.385Z,24.67
2022-08-04T19:59:51.905Z,18.38
2022-08-04T20:04:57.570Z,11.68
2022-08-04T20:10:00.337Z,18.60
2022-08-04T20:15:07.886Z,46.90
2022-08-04T20:20:15.053Z,34.03
2022-08-04T20:25:35.635Z,97.75
2022-08-04T20:30:39.579Z,152.13
2022-08-04T20:36:00.808Z,123.53
2022-08-04T20:41:05.823Z,51.20
2022-08-04T20:46:18.138Z,26.25
2022-08-04T20:51:31.805Z,15.60
2022-08-04T20:56:36.745Z,14.40
2022-08-04T21:01:39.230Z,13.85
2022-08-04T21:06:41.713Z,17.05
2022-08-04T21:11:52.704Z,19.20
2022-08-04T21:16:59.752Z,13.88
2022-08-04T21:22:02.353Z,15.57
2022-08-04T21:27:09.834Z,13.02
2022-08-04T21:32:12.593Z,15.68
2022-08-04T21:37:16.557Z,10.25
2022-08-04T21:42:27.904Z,11.80
2022-08-04T21:47:46.240Z,11.43
2022-08-04T21:52:51.656Z,11.52
2022-08-04T21:57:54.406Z,14.02
2022-08-04T22:03:03.465Z,18.90
2022-08-04T22:08:05.956Z,11.75
2022-08-04T22:13:08.395Z,9.10
2022-08-04T22:18:10.810Z,11.60
2022-08-04T22:23:17.043Z,13.20
2022-08-04T22:28:21.829Z,12.13
2022-08-04T22:33:54.724Z,12.23
2022-08-04T22:38:55.979Z,10.65
2022-08-04T22:44:06.683Z,10.88
2022-08-04T22:49:09.493Z,11.35
2022-08-04T22:54:12.686Z,9.35
2022-08-04T22:59:16.487Z,8.52
2022-08-04T23:04:18.957Z,14.65
2022-08-04T23:09:21.515Z,9.27
2022-08-04T23:14:25.058Z,10.15
2022-08-04T23:19:29.892Z,8.80
2022-08-04T23:24:32.811Z,10.85
2022-08-04T23:29:53.258Z,11.85
2022-08-04T23:34:57.439Z,10.85
2022-08-04T23:40:14.392Z,11.45
2022-08-04T23:46:03.967Z,8.90
2022-08-04T23:50:45.014Z,9.48
2022-08-04T23:55:47.760Z,11.30
